Time;durP1;ratioP1;P1;durP2;ratioP2;P2;SDS_P1;SDS_P2;PMS_P1;PMS_P2;Temp;Humidity;BMP_temperature;BMP_pressure;BME280_temperature;BME280_humidity;BME280_pressure;Samples;Min_cycle;Max_cycle;Signal;HPM_P1;HPM_P2
2020/12/17 00:00:14;;;;;;;4.53;3.20;;;11.70;99.90;;;;;;4914391;29;20670;-78
2020/12/17 00:02:42;;;;;;;5.07;3.47;;;11.70;99.90;;;;;;4912469;29;20178;-81
2020/12/17 00:05:14;;;;;;;5.33;3.53;;;11.70;99.90;;;;;;4919388;29;20169;-82
2020/12/17 00:07:41;;;;;;;5.00;3.37;;;11.60;99.90;;;;;;4925248;29;20249;-79
2020/12/17 00:10:11;;;;;;;5.33;3.37;;;11.70;99.90;;;;;;4925030;29;20517;-79
2020/12/17 00:12:40;;;;;;;6.83;3.80;;;11.60;99.90;;;;;;4924290;29;20181;-80
2020/12/17 00:15:10;;;;;;;5.00;3.63;;;11.60;99.90;;;;;;4907315;29;20185;-80
2020/12/17 00:17:44;;;;;;;5.90;3.57;;;11.60;99.90;;;;;;4910462;29;20289;-80
2020/12/17 00:20:11;;;;;;;5.23;3.30;;;11.60;99.90;;;;;;4914430;29;20185;-79
2020/12/17 00:22:39;;;;;;;5.17;3.13;;;11.60;99.90;;;;;;4907289;29;20190;-80
2020/12/17 00:25:06;;;;;;;5.50;3.20;;;11.70;99.90;;;;;;4904244;29;20173;-79
2020/12/17 00:27:32;;;;;;;5.37;3.90;;;11.60;99.90;;;;;;4898255;29;20210;-80
2020/12/17 00:29:57;;;;;;;6.67;3.80;;;11.60;99.90;;;;;;4885727;29;20203;-80
2020/12/17 00:32:23;;;;;;;6.07;4.20;;;11.70;99.90;;;;;;4886528;29;20202;-80
2020/12/17 00:34:50;;;;;;;6.30;4.00;;;11.70;99.90;;;;;;4884938;29;20190;-81
2020/12/17 00:37:16;;;;;;;4.23;3.60;;;11.70;99.90;;;;;;4884886;29;20207;-80
2020/12/17 00:39:41;;;;;;;7.03;3.37;;;11.80;99.90;;;;;;4884165;29;20312;-80
2020/12/17 00:42:07;;;;;;;6.00;3.97;;;11.70;99.90;;;;;;4885003;29;20175;-80
2020/12/17 00:44:33;;;;;;;4.63;3.90;;;11.70;99.90;;;;;;4882625;29;20183;-81
2020/12/17 00:46:59;;;;;;;5.83;3.83;;;11.60;99.90;;;;;;4884951;29;20179;-81
2020/12/17 00:49:25;;;;;;;6.57;3.30;;;11.60;99.90;;;;;;4884079;29;20627;-79
2020/12/17 00:51:56;;;;;;;4.43;3.47;;;11.50;99.90;;;;;;4881708;29;21061;-79
2020/12/17 00:54:22;;;;;;;6.53;3.60;;;11.60;99.90;;;;;;4883545;29;20218;-80
2020/12/17 00:56:47;;;;;;;6.50;3.30;;;11.50;99.90;;;;;;4882537;29;20636;-81
2020/12/17 00:59:13;;;;;;;5.93;3.90;;;11.60;99.90;;;;;;4882643;29;20179;-80
2020/12/17 01:01:39;;;;;;;5.50;3.80;;;11.70;99.90;;;;;;4882128;29;20175;-81
2020/12/17 01:04:06;;;;;;;5.27;4.00;;;11.60;99.90;;;;;;4880440;29;20188;-80
2020/12/17 01:06:32;;;;;;;5.83;4.30;;;11.70;99.90;;;;;;4881427;29;20258;-80
2020/12/17 01:08:57;;;;;;;5.97;3.70;;;11.60;99.90;;;;;;4879988;29;20211;-81
2020/12/17 01:11:29;;;;;;;9.50;4.30;;;11.60;99.90;;;;;;4880794;29;20178;-81
2020/12/17 01:13:54;;;;;;;5.40;4.03;;;11.60;99.90;;;;;;4881621;29;20203;-80
2020/12/17 01:16:21;;;;;;;6.07;4.50;;;11.60;99.90;;;;;;4882044;29;20183;-81
2020/12/17 01:18:47;;;;;;;5.93;4.53;;;11.60;99.90;;;;;;4882343;29;20223;-80
2020/12/17 01:21:12;;;;;;;5.87;3.70;;;11.50;99.90;;;;;;4881697;29;20600;-80
2020/12/17 01:23:39;;;;;;;5.27;4.00;;;11.50;99.90;;;;;;4880642;29;20274;-80
2020/12/17 01:26:08;;;;;;;6.60;4.40;;;11.50;99.90;;;;;;4881578;29;20183;-80
2020/12/17 01:28:35;;;;;;;7.70;4.53;;;11.50;99.90;;;;;;4880708;29;20244;-81
2020/12/17 01:31:07;;;;;;;6.17;4.40;;;11.50;99.90;;;;;;4882112;29;20171;-80
2020/12/17 01:33:33;;;;;;;5.37;4.13;;;11.50;99.90;;;;;;4880386;29;20191;-81
2020/12/17 01:36:09;;;;;;;6.13;4.10;;;11.50;99.90;;;;;;4882124;29;20203;-81
2020/12/17 01:38:39;;;;;;;5.20;3.80;;;11.40;99.90;;;;;;4884298;29;20258;-81
2020/12/17 01:41:05;;;;;;;5.87;4.50;;;11.50;99.90;;;;;;4925766;23;20229;-80
2020/12/17 01:43:39;;;;;;;5.67;4.47;;;11.40;99.90;;;;;;4935606;29;20641;-79
2020/12/17 01:46:06;;;;;;;6.83;4.77;;;11.50;99.90;;;;;;4933478;29;20177;-79
2020/12/17 01:48:32;;;;;;;7.07;4.20;;;11.40;99.90;;;;;;4932681;29;20174;-77
2020/12/17 01:50:59;;;;;;;6.83;5.10;;;11.50;99.90;;;;;;4930751;29;20193;-80
2020/12/17 01:53:28;;;;;;;5.13;4.43;;;11.40;99.90;;;;;;4930293;29;20173;-80
2020/12/17 01:56:01;;;;;;;5.20;4.70;;;11.40;99.90;;;;;;4929501;29;20182;-78
2020/12/17 01:58:31;;;;;;;6.77;4.40;;;11.40;99.90;;;;;;4926202;29;20712;-79
2020/12/17 02:00:58;;;;;;;9.77;4.37;;;11.40;99.90;;;;;;4927506;29;20641;-79
2020/12/17 02:03:24;;;;;;;6.67;4.37;;;11.40;99.90;;;;;;4920702;29;20241;-80
2020/12/17 02:05:50;;;;;;;6.93;4.70;;;11.30;99.90;;;;;;4921080;29;20576;-80
2020/12/17 02:08:20;;;;;;;6.20;4.60;;;11.30;99.90;;;;;;4920734;29;20187;-80
2020/12/17 02:10:46;;;;;;;7.77;5.27;;;11.30;99.90;;;;;;4921797;29;20306;-79
2020/12/17 02:13:12;;;;;;;6.60;4.57;;;11.40;99.90;;;;;;4920587;29;20209;-80
2020/12/17 02:15:38;;;;;;;6.40;5.20;;;11.20;99.90;;;;;;4922447;29;20230;-80
2020/12/17 02:18:06;;;;;;;9.17;4.87;;;11.20;99.90;;;;;;4922528;29;20213;-79
2020/12/17 02:20:32;;;;;;;7.63;5.13;;;11.20;99.90;;;;;;4921912;29;20257;-81
2020/12/17 02:22:58;;;;;;;7.13;5.13;;;11.10;99.90;;;;;;4921347;29;20174;-81
2020/12/17 02:25:24;;;;;;;5.53;5.03;;;11.10;99.90;;;;;;4920496;29;20181;-80
2020/12/17 02:27:50;;;;;;;6.53;4.43;;;11.20;99.90;;;;;;4921145;29;20176;-79
2020/12/17 02:30:16;;;;;;;8.80;5.50;;;11.10;99.90;;;;;;4922280;29;20678;-80
2020/12/17 02:32:42;;;;;;;6.67;4.80;;;11.10;99.90;;;;;;4923643;29;20174;-79
2020/12/17 02:35:09;;;;;;;7.33;5.10;;;11.10;99.90;;;;;;4925127;29;20178;-79
2020/12/17 02:37:36;;;;;;;8.93;5.67;;;11.10;99.90;;;;;;4924471;29;20685;-80
2020/12/17 02:40:02;;;;;;;7.50;6.13;;;11.10;99.90;;;;;;4922228;29;20229;-80
2020/12/17 02:42:28;;;;;;;7.00;5.20;;;11.00;99.90;;;;;;4923684;29;20562;-81
2020/12/17 02:44:53;;;;;;;7.90;5.87;;;11.00;99.90;;;;;;4926773;29;20216;-80
2020/12/17 02:47:19;;;;;;;7.93;5.47;;;11.10;99.90;;;;;;4921833;29;20228;-80
2020/12/17 02:49:46;;;;;;;7.33;5.40;;;11.10;99.90;;;;;;4921524;29;20276;-81
2020/12/17 02:52:11;;;;;;;7.80;5.97;;;11.00;99.90;;;;;;4922068;29;20177;-80
2020/12/17 02:54:37;;;;;;;9.10;5.80;;;10.90;99.90;;;;;;4920765;29;20173;-81
2020/12/17 02:57:03;;;;;;;7.30;5.67;;;11.00;99.90;;;;;;4920113;29;20264;-80
2020/12/17 02:59:28;;;;;;;6.63;5.77;;;10.90;99.90;;;;;;4919719;29;20264;-81
2020/12/17 03:01:54;;;;;;;9.00;7.00;;;10.90;99.90;;;;;;4919444;29;20307;-80
2020/12/17 03:04:22;;;;;;;8.17;6.67;;;11.00;99.90;;;;;;4924666;29;20194;-82
2020/12/17 03:06:49;;;;;;;9.63;7.03;;;11.00;99.90;;;;;;4928295;29;20211;-79
2020/12/17 03:09:14;;;;;;;8.87;7.00;;;11.00;99.90;;;;;;4919513;29;20182;-81
2020/12/17 03:11:40;;;;;;;11.37;6.90;;;11.00;99.90;;;;;;4919420;29;20277;-80
2020/12/17 03:14:06;;;;;;;10.23;6.97;;;10.90;99.90;;;;;;4920304;29;20217;-78
2020/12/17 03:16:32;;;;;;;10.63;7.17;;;10.90;99.90;;;;;;4925444;28;20168;-79
2020/12/17 03:18:59;;;;;;;11.80;8.13;;;10.90;99.90;;;;;;4943218;28;20210;-79
2020/12/17 03:21:24;;;;;;;8.77;7.00;;;10.90;99.90;;;;;;4943686;28;20158;-79
2020/12/17 03:23:50;;;;;;;8.30;7.23;;;10.90;99.90;;;;;;4942305;28;20258;-78
2020/12/17 03:26:16;;;;;;;10.87;7.33;;;10.90;99.90;;;;;;4942472;28;20177;-78
2020/12/17 03:28:42;;;;;;;9.80;7.23;;;10.90;99.90;;;;;;4924620;29;20693;-81
2020/12/17 03:34:30;;;;;;;12.40;7.17;;;10.90;99.90;;;;;;4920801;29;20169;-79
2020/12/17 03:36:57;;;;;;;9.03;7.10;;;11.00;99.90;;;;;;4931434;29;20170;-77
2020/12/17 03:39:22;;;;;;;9.00;6.90;;;11.00;99.90;;;;;;4929113;29;20186;-79
2020/12/17 03:41:48;;;;;;;9.40;6.90;;;11.10;99.90;;;;;;4919771;29;20239;-79
2020/12/17 03:44:14;;;;;;;9.40;7.17;;;11.10;99.90;;;;;;4921834;29;20189;-80
2020/12/17 03:46:39;;;;;;;9.03;6.07;;;11.10;99.90;;;;;;4921888;29;20174;-80
2020/12/17 03:49:05;;;;;;;8.13;6.00;;;11.00;99.90;;;;;;4943167;28;20189;-81
2020/12/17 03:51:31;;;;;;;8.30;6.17;;;11.00;99.90;;;;;;4942396;28;20165;-79
2020/12/17 03:53:56;;;;;;;6.80;5.77;;;11.00;99.90;;;;;;4937452;28;20242;-79
2020/12/17 03:56:22;;;;;;;6.70;5.70;;;10.90;99.90;;;;;;4930507;29;20186;-79
2020/12/17 03:59:39;;;;;;;6.80;5.70;;;11.00;99.90;;;;;;4933065;29;20273;-78
2020/12/17 04:05:26;;;;;;;6.80;5.50;;;10.90;99.90;;;;;;4920540;29;20540;-80
2020/12/17 04:07:51;;;;;;;6.90;5.90;;;10.90;99.90;;;;;;4919588;29;20185;-81
2020/12/17 04:10:17;;;;;;;6.23;5.17;;;10.90;99.90;;;;;;4920102;29;20181;-80
2020/12/17 04:12:44;;;;;;;6.60;5.83;;;10.80;99.90;;;;;;4921781;29;20205;-81
2020/12/17 04:15:10;;;;;;;8.23;6.00;;;10.80;99.90;;;;;;4925349;29;20182;-79
2020/12/17 04:17:35;;;;;;;6.43;5.40;;;10.90;99.90;;;;;;4937712;29;20202;-79
2020/12/17 04:20:01;;;;;;;8.37;5.43;;;10.80;99.90;;;;;;4923995;29;20181;-80
2020/12/17 04:22:27;;;;;;;8.50;5.37;;;10.80;99.90;;;;;;4920539;29;20257;-81
2020/12/17 04:24:54;;;;;;;5.70;5.10;;;10.80;99.90;;;;;;4918603;29;20220;-81
2020/12/17 04:27:19;;;;;;;6.70;5.67;;;10.60;99.90;;;;;;4918526;29;20239;-79
2020/12/17 04:29:45;;;;;;;4.90;4.40;;;10.60;99.90;;;;;;4919670;29;20540;-80
2020/12/17 04:32:11;;;;;;;6.53;4.90;;;10.70;99.90;;;;;;4919058;29;20221;-79
2020/12/17 04:34:37;;;;;;;6.70;5.17;;;10.70;99.90;;;;;;4919931;29;20189;-81
2020/12/17 04:37:03;;;;;;;7.93;5.50;;;10.70;99.90;;;;;;4928990;29;20170;-78
2020/12/17 04:39:29;;;;;;;7.63;5.17;;;10.60;99.90;;;;;;4940526;29;20178;-78
2020/12/17 04:41:57;;;;;;;5.70;4.30;;;10.70;99.90;;;;;;4930000;29;20252;-79
2020/12/17 04:44:26;;;;;;;5.20;4.70;;;10.70;99.90;;;;;;4925083;29;20186;-78
2020/12/17 04:46:58;;;;;;;5.30;4.23;;;10.60;99.90;;;;;;4923710;29;20220;-78
2020/12/17 04:49:31;;;;;;;5.93;4.83;;;10.70;99.90;;;;;;4919828;29;20190;-79
2020/12/17 04:51:57;;;;;;;7.10;4.47;;;10.70;99.90;;;;;;4919650;29;20177;-80
2020/12/17 04:54:24;;;;;;;5.50;4.40;;;10.60;99.90;;;;;;4902773;29;20181;-79
2020/12/17 04:57:09;;;;;;;5.83;4.33;;;10.60;99.90;;;;;;4917400;29;20182;-80
2020/12/17 04:59:38;;;;;;;7.10;5.20;;;10.50;99.90;;;;;;4917597;29;20197;-80
2020/12/17 05:02:06;;;;;;;5.00;4.33;;;10.50;99.90;;;;;;4917081;29;20260;-80
2020/12/17 05:04:37;;;;;;;5.87;4.43;;;10.50;99.90;;;;;;4917975;29;20181;-79
2020/12/17 05:07:04;;;;;;;5.43;4.43;;;10.50;99.90;;;;;;4919001;29;20551;-80
2020/12/17 05:09:30;;;;;;;5.10;4.20;;;10.40;99.90;;;;;;4917745;29;20181;-79
2020/12/17 05:11:56;;;;;;;5.47;4.07;;;10.40;99.90;;;;;;4917420;29;20633;-80
2020/12/17 05:14:23;;;;;;;4.43;3.63;;;10.40;99.90;;;;;;4919425;29;20178;-80
2020/12/17 05:16:50;;;;;;;7.13;4.33;;;10.50;99.90;;;;;;4919339;29;20180;-80
2020/12/17 05:19:15;;;;;;;6.13;4.40;;;10.40;99.90;;;;;;4919058;29;20209;-80
2020/12/17 05:21:41;;;;;;;6.13;4.07;;;10.30;99.90;;;;;;4919102;29;20201;-81
2020/12/17 05:24:11;;;;;;;5.47;4.07;;;10.30;99.90;;;;;;4917858;29;20177;-80
2020/12/17 05:26:38;;;;;;;5.17;3.60;;;10.40;99.90;;;;;;4919214;29;20532;-82
2020/12/17 05:29:04;;;;;;;5.43;3.43;;;10.30;99.90;;;;;;4918578;29;20173;-79
2020/12/17 05:31:33;;;;;;;5.67;3.93;;;10.40;99.90;;;;;;4918164;29;20178;-79
2020/12/17 05:34:04;;;;;;;3.90;2.97;;;10.50;99.90;;;;;;4919616;29;20174;-80
2020/12/17 05:36:30;;;;;;;3.90;3.10;;;10.40;99.90;;;;;;4918474;29;20225;-79
2020/12/17 05:39:09;;;;;;;6.03;3.70;;;10.40;99.90;;;;;;4931558;29;20209;-79
2020/12/17 05:41:36;;;;;;;4.30;2.97;;;10.50;99.90;;;;;;4932625;29;20241;-80
2020/12/17 05:44:37;;;;;;;3.47;2.70;;;10.40;99.90;;;;;;4938578;29;20177;-78
2020/12/17 05:47:04;;;;;;;3.43;2.50;;;10.30;99.90;;;;;;4926144;29;20185;-79
2020/12/17 05:49:31;;;;;;;3.60;2.30;;;10.20;99.90;;;;;;4920359;29;20200;-80
2020/12/17 05:52:19;;;;;;;3.90;2.70;;;10.20;99.90;;;;;;4918641;29;20185;-79
2020/12/17 05:54:54;;;;;;;5.00;2.50;;;10.20;99.90;;;;;;4918446;29;20190;-80
2020/12/17 05:57:21;;;;;;;4.07;2.43;;;10.10;99.90;;;;;;4917947;29;20197;-80
2020/12/17 06:00:04;;;;;;;4.77;2.60;;;10.10;99.90;;;;;;4918243;29;20657;-79
2020/12/17 06:02:32;;;;;;;5.77;2.50;;;10.10;99.90;;;;;;4918489;29;20177;-80
2020/12/17 06:05:13;;;;;;;3.80;2.40;;;10.20;99.90;;;;;;4918388;29;20176;-79
2020/12/17 06:07:47;;;;;;;4.53;2.40;;;10.20;99.90;;;;;;4917539;29;20233;-80
2020/12/17 06:10:30;;;;;;;3.50;2.60;;;10.30;99.90;;;;;;4919780;29;20208;-80
2020/12/17 06:13:01;;;;;;;6.80;2.73;;;10.30;99.90;;;;;;4918321;29;20186;-82
2020/12/17 06:15:32;;;;;;;4.03;2.13;;;10.30;99.90;;;;;;4918284;29;20170;-80
2020/12/17 06:17:59;;;;;;;3.67;2.60;;;10.40;99.90;;;;;;4917910;29;20216;-80
2020/12/17 06:20:28;;;;;;;3.27;2.37;;;10.50;99.90;;;;;;4916587;29;20658;-80
2020/12/17 06:22:55;;;;;;;4.13;2.60;;;10.40;99.90;;;;;;4920613;29;20257;-78
2020/12/17 06:25:23;;;;;;;4.67;2.67;;;10.40;99.90;;;;;;4921487;29;20181;-79
2020/12/17 06:27:50;;;;;;;5.50;3.00;;;10.40;99.90;;;;;;4923713;29;20165;-79
2020/12/17 06:30:19;;;;;;;4.93;3.03;;;10.40;99.90;;;;;;4920210;29;20173;-80
2020/12/17 06:32:47;;;;;;;5.97;3.10;;;10.40;99.90;;;;;;4922193;29;20233;-80
2020/12/17 06:35:24;;;;;;;5.90;3.80;;;10.30;99.90;;;;;;4922203;29;20701;-80
2020/12/17 06:37:52;;;;;;;7.73;4.00;;;10.30;99.90;;;;;;4921494;29;20201;-80
2020/12/17 06:40:26;;;;;;;8.23;4.67;;;10.30;99.90;;;;;;4921788;29;20178;-81
2020/12/17 06:42:52;;;;;;;6.37;3.90;;;10.20;99.90;;;;;;4920525;29;20197;-80
2020/12/17 06:45:47;;;;;;;6.97;3.97;;;10.20;99.90;;;;;;4920901;29;20184;-82
2020/12/17 06:48:38;;;;;;;8.23;3.87;;;10.20;99.90;;;;;;4921818;29;20221;-80
2020/12/17 06:51:30;;;;;;;8.00;4.13;;;10.20;99.90;;;;;;4919539;29;20194;-81
2020/12/17 06:53:56;;;;;;;9.67;4.70;;;10.20;99.90;;;;;;4919047;29;20182;-81
2020/12/17 06:56:21;;;;;;;8.13;4.30;;;10.30;99.90;;;;;;4919501;29;20205;-80
2020/12/17 06:58:47;;;;;;;7.87;4.40;;;10.20;99.90;;;;;;4918629;29;20280;-81
2020/12/17 07:01:24;;;;;;;8.20;4.47;;;10.20;99.90;;;;;;4920301;29;20184;-81
2020/12/17 07:03:50;;;;;;;8.13;4.90;;;10.20;99.90;;;;;;4921500;29;20173;-79
2020/12/17 07:06:17;;;;;;;7.00;4.03;;;10.30;99.90;;;;;;4919894;29;20267;-80
2020/12/17 07:08:45;;;;;;;8.03;4.00;;;10.30;99.90;;;;;;4919808;29;20638;-80
2020/12/17 07:11:33;;;;;;;8.27;3.90;;;10.30;99.90;;;;;;4918941;29;20301;-81
2020/12/17 07:13:59;;;;;;;6.17;3.77;;;10.20;99.90;;;;;;4919525;29;20196;-80
2020/12/17 07:16:26;;;;;;;7.00;4.10;;;10.20;99.90;;;;;;4919290;29;20618;-80
2020/12/17 07:19:12;;;;;;;7.33;3.93;;;10.20;99.90;;;;;;4920394;29;20720;-80
2020/12/17 07:21:40;;;;;;;6.83;4.17;;;10.20;99.90;;;;;;4937223;29;20649;-81
2020/12/17 07:24:06;;;;;;;12.70;4.47;;;10.30;99.90;;;;;;4926398;29;20490;-81
2020/12/17 07:26:34;;;;;;;7.10;4.37;;;10.30;99.90;;;;;;4925073;29;20170;-86
2020/12/17 07:29:00;;;;;;;7.10;4.63;;;10.30;99.90;;;;;;4924885;29;20188;-80
2020/12/17 07:31:27;;;;;;;8.23;4.67;;;10.30;99.90;;;;;;4920614;29;20204;-80
2020/12/17 07:33:54;;;;;;;8.80;4.73;;;10.20;99.90;;;;;;4919199;29;20196;-78
2020/12/17 07:36:46;;;;;;;9.83;5.00;;;10.20;99.90;;;;;;4924191;29;20193;-79
2020/12/17 07:39:12;;;;;;;6.63;3.73;;;10.20;99.90;;;;;;4935053;29;20209;-76
2020/12/17 07:41:38;;;;;;;11.17;5.37;;;10.20;99.90;;;;;;4928030;29;20328;-78
2020/12/17 07:44:05;;;;;;;9.40;5.33;;;10.10;99.90;;;;;;4922739;29;20251;-77
2020/12/17 07:46:41;;;;;;;9.60;5.17;;;10.10;99.90;;;;;;4950142;23;20221;-78
2020/12/17 07:49:28;;;;;;;7.53;5.17;;;10.10;99.90;;;;;;4918046;29;20207;-78
2020/12/17 07:51:54;;;;;;;8.87;5.27;;;10.00;99.90;;;;;;4917560;29;20182;-77
2020/12/17 07:54:21;;;;;;;8.97;5.27;;;10.00;99.90;;;;;;4907010;29;20187;-80
2020/12/17 07:56:48;;;;;;;6.73;4.80;;;10.00;99.90;;;;;;4899479;29;20206;-77
2020/12/17 07:59:14;;;;;;;9.67;5.53;;;10.00;99.90;;;;;;4899027;29;20297;-77
2020/12/17 08:01:40;;;;;;;7.20;5.27;;;10.10;99.90;;;;;;4899734;29;20197;-78
2020/12/17 08:04:07;;;;;;;8.90;5.27;;;10.10;99.90;;;;;;4899337;29;20305;-76
2020/12/17 08:06:34;;;;;;;9.10;5.27;;;10.10;99.90;;;;;;4917724;29;20188;-76
2020/12/17 08:09:03;;;;;;;11.07;5.77;;;10.10;99.90;;;;;;4918084;29;20226;-77
2020/12/17 08:11:29;;;;;;;9.17;5.10;;;10.10;99.90;;;;;;4917663;29;20181;-78
2020/12/17 08:14:06;;;;;;;8.43;5.57;;;10.10;99.90;;;;;;4917643;29;20653;-79
2020/12/17 08:16:35;;;;;;;8.33;5.73;;;10.10;99.90;;;;;;4917444;29;20185;-77
2020/12/17 08:19:03;;;;;;;10.13;5.60;;;10.20;99.90;;;;;;4917696;29;20217;-78
2020/12/17 08:21:30;;;;;;;9.50;5.80;;;10.20;99.90;;;;;;4917661;29;20198;-78
2020/12/17 08:23:56;;;;;;;14.13;6.43;;;10.00;99.90;;;;;;4917812;29;20186;-77
2020/12/17 08:26:23;;;;;;;7.53;5.23;;;10.20;99.90;;;;;;4916371;29;20181;-80
2020/12/17 08:28:50;;;;;;;10.47;5.53;;;10.20;99.90;;;;;;4914536;29;20185;-77
2020/12/17 08:31:24;;;;;;;14.43;6.43;;;10.30;99.90;;;;;;4910732;29;20209;-76
2020/12/17 08:33:56;;;;;;;9.37;5.47;;;10.30;99.90;;;;;;4914535;29;20180;-79
2020/12/17 08:36:24;;;;;;;9.00;5.70;;;10.20;99.90;;;;;;4916048;29;20617;-76
2020/12/17 08:39:04;;;;;;;9.13;6.10;;;10.30;99.90;;;;;;4917470;29;20270;-77
2020/12/17 08:41:42;;;;;;;10.40;5.90;;;10.30;99.90;;;;;;4917079;29;20653;-79
2020/12/17 08:44:09;;;;;;;11.67;5.40;;;10.40;99.90;;;;;;4916168;29;20236;-78
2020/12/17 08:46:37;;;;;;;11.03;5.77;;;10.30;99.90;;;;;;4916835;29;20209;-76
2020/12/17 08:49:06;;;;;;;10.20;6.10;;;10.30;99.90;;;;;;4916698;29;20257;-78
2020/12/17 08:51:34;;;;;;;14.93;7.33;;;10.30;99.90;;;;;;4921993;29;20185;-76
2020/12/17 08:54:00;;;;;;;13.43;7.10;;;10.20;99.90;;;;;;4928631;29;20166;-78
2020/12/17 08:56:25;;;;;;;10.13;7.07;;;10.30;99.90;;;;;;4926372;29;20212;-76
2020/12/17 08:58:59;;;;;;;12.97;6.77;;;10.20;99.90;;;;;;4927538;29;20220;-78
2020/12/17 09:01:41;;;;;;;12.97;7.80;;;10.20;99.90;;;;;;4927643;29;20645;-77
2020/12/17 09:04:09;;;;;;;11.63;6.93;;;10.20;99.90;;;;;;4917724;29;20210;-77
2020/12/17 09:06:37;;;;;;;12.77;6.93;;;10.20;99.90;;;;;;4915841;29;20229;-76
2020/12/17 09:09:18;;;;;;;11.43;6.57;;;10.20;99.90;;;;;;4920258;29;20277;-77
2020/12/17 09:11:46;;;;;;;9.80;5.90;;;10.30;99.90;;;;;;4919031;29;20225;-76
2020/12/17 09:14:19;;;;;;;9.50;6.30;;;10.30;99.90;;;;;;4918240;29;20192;-76
2020/12/17 09:16:46;;;;;;;10.57;6.30;;;10.30;99.90;;;;;;4916253;29;20274;-79
2020/12/17 09:19:12;;;;;;;11.67;7.00;;;10.30;99.90;;;;;;4917305;29;20756;-77
2020/12/17 09:21:54;;;;;;;13.63;6.20;;;10.30;99.90;;;;;;4916664;29;20593;-81
2020/12/17 09:24:41;;;;;;;11.00;4.70;;;10.40;99.90;;;;;;4917494;29;20174;-78
2020/12/17 09:27:18;;;;;;;8.37;6.20;;;10.50;99.90;;;;;;4918361;29;20275;-78
2020/12/17 09:30:01;;;;;;;8.23;5.00;;;10.50;99.90;;;;;;4919009;29;20169;-76
2020/12/17 09:32:28;;;;;;;10.17;3.83;;;10.50;99.90;;;;;;4918984;29;20209;-80
2020/12/17 09:35:09;;;;;;;12.00;5.47;;;10.50;99.90;;;;;;4917268;29;20535;-77
2020/12/17 09:37:36;;;;;;;8.67;4.37;;;10.60;99.90;;;;;;4913930;29;20247;-76
2020/12/17 09:40:05;;;;;;;9.43;4.93;;;10.60;99.90;;;;;;4913708;29;20185;-77
2020/12/17 09:42:30;;;;;;;9.17;4.70;;;10.70;99.90;;;;;;4917184;29;20178;-80
2020/12/17 09:44:56;;;;;;;9.03;4.83;;;10.70;99.90;;;;;;4918227;29;20200;-77
2020/12/17 09:47:34;;;;;;;12.73;5.20;;;10.70;99.90;;;;;;4916756;29;20245;-76
2020/12/17 09:50:08;;;;;;;9.40;4.20;;;10.70;99.90;;;;;;4916894;29;20565;-76
2020/12/17 09:52:33;;;;;;;8.93;4.63;;;10.60;99.90;;;;;;4917426;29;20182;-77
2020/12/17 09:54:59;;;;;;;10.23;4.53;;;10.50;99.90;;;;;;4915503;29;20279;-77
2020/12/17 09:57:35;;;;;;;8.33;4.80;;;10.50;99.90;;;;;;4916624;29;20670;-76
2020/12/17 10:00:00;;;;;;;13.10;4.20;;;10.50;99.90;;;;;;4916824;29;20637;-78
2020/12/17 10:02:26;;;;;;;12.87;4.57;;;10.50;99.90;;;;;;4916235;29;20197;-77
2020/12/17 10:04:51;;;;;;;7.40;3.77;;;10.60;99.90;;;;;;4921358;29;20186;-81
2020/12/17 10:07:17;;;;;;;9.57;4.20;;;10.60;99.90;;;;;;4919767;29;20249;-79
2020/12/17 10:09:43;;;;;;;8.43;3.77;;;10.70;99.90;;;;;;4911629;29;20269;-77
2020/12/17 10:12:08;;;;;;;8.87;3.87;;;10.70;99.90;;;;;;4918002;29;20302;-80
2020/12/17 10:14:34;;;;;;;11.27;4.40;;;10.80;99.90;;;;;;4921747;29;20177;-79
2020/12/17 10:17:01;;;;;;;7.33;3.87;;;11.00;99.90;;;;;;4921349;29;20182;-79
2020/12/17 10:19:30;;;;;;;8.63;4.00;;;10.90;99.90;;;;;;4921482;29;20244;-81
2020/12/17 10:21:57;;;;;;;9.47;3.47;;;11.00;99.90;;;;;;4920561;29;20725;-78
2020/12/17 10:24:24;;;;;;;7.03;3.50;;;10.90;99.90;;;;;;4920368;29;20286;-77
2020/12/17 10:26:50;;;;;;;9.57;3.67;;;10.90;99.90;;;;;;4919740;29;20224;-81
2020/12/17 10:29:16;;;;;;;5.73;3.27;;;10.90;99.90;;;;;;4920889;29;20250;-77
2020/12/17 10:31:43;;;;;;;8.07;3.60;;;11.00;99.90;;;;;;4918606;29;20706;-78
2020/12/17 10:34:08;;;;;;;7.70;3.53;;;11.10;99.90;;;;;;4920133;29;20182;-77
2020/12/17 10:36:38;;;;;;;7.33;3.90;;;11.10;99.90;;;;;;4919012;29;20177;-77
2020/12/17 10:39:06;;;;;;;7.87;3.40;;;11.20;99.90;;;;;;4913051;29;20241;-77
2020/12/17 10:41:32;;;;;;;6.37;3.43;;;11.20;99.90;;;;;;4900601;29;20655;-78
2020/12/17 10:43:57;;;;;;;7.20;3.30;;;11.20;99.90;;;;;;4900321;29;20266;-79
2020/12/17 10:46:23;;;;;;;10.17;3.30;;;11.20;99.90;;;;;;4900095;29;20213;-76
2020/12/17 10:48:49;;;;;;;6.90;3.47;;;11.20;99.90;;;;;;4900257;29;20653;-80
2020/12/17 10:51:15;;;;;;;6.93;3.10;;;11.20;99.90;;;;;;4899853;29;20173;-76
2020/12/17 10:53:42;;;;;;;8.43;3.20;;;11.30;99.90;;;;;;4904978;29;20646;-76
2020/12/17 10:56:08;;;;;;;9.20;3.33;;;11.20;99.90;;;;;;4900002;29;20178;-78
2020/12/17 10:58:34;;;;;;;6.80;2.70;;;11.30;99.90;;;;;;4901019;29;20735;-76
2020/12/17 11:01:00;;;;;;;6.97;2.70;;;11.30;99.90;;;;;;4900407;29;20170;-77
2020/12/17 11:03:27;;;;;;;6.83;2.70;;;11.40;99.90;;;;;;4905116;29;20179;-77
2020/12/17 11:05:53;;;;;;;10.63;2.73;;;11.40;99.90;;;;;;4916444;29;20264;-78
2020/12/17 11:08:20;;;;;;;7.13;2.77;;;11.50;99.90;;;;;;4914125;29;20182;-79
2020/12/17 11:10:45;;;;;;;5.73;2.83;;;11.50;99.90;;;;;;4908052;29;20240;-79
2020/12/17 11:13:11;;;;;;;10.27;2.83;;;11.40;99.90;;;;;;4901218;29;20194;-77
2020/12/17 11:15:37;;;;;;;8.03;2.93;;;11.40;99.90;;;;;;4899907;29;20177;-79
2020/12/17 11:18:03;;;;;;;8.70;2.67;;;11.40;99.90;;;;;;4902250;29;20554;-76
2020/12/17 11:20:29;;;;;;;6.70;3.10;;;11.50;99.90;;;;;;4910091;29;20537;-78
2020/12/17 11:22:54;;;;;;;10.50;2.90;;;11.30;99.90;;;;;;4905894;29;20242;-76
2020/12/17 11:25:20;;;;;;;6.50;2.43;;;11.20;99.90;;;;;;4903829;29;20189;-80
2020/12/17 11:27:48;;;;;;;5.03;2.53;;;11.10;99.90;;;;;;4900760;29;20186;-79
2020/12/17 11:30:13;;;;;;;9.77;2.73;;;11.30;99.90;;;;;;4906112;29;20253;-76
2020/12/17 11:32:39;;;;;;;8.07;2.80;;;11.30;99.90;;;;;;4903638;29;20641;-77
2020/12/17 11:35:06;;;;;;;10.17;2.90;;;11.30;99.90;;;;;;4908756;29;21383;-80
2020/12/17 11:37:33;;;;;;;11.03;2.73;;;11.40;99.90;;;;;;4901467;29;20681;-77
2020/12/17 11:40:00;;;;;;;8.83;3.23;;;11.50;99.90;;;;;;4907035;29;20193;-76
2020/12/17 11:42:26;;;;;;;8.40;2.60;;;11.50;99.90;;;;;;4914685;29;20186;-80
2020/12/17 11:44:52;;;;;;;8.63;3.13;;;11.60;99.90;;;;;;4929653;28;20190;-77
2020/12/17 11:47:17;;;;;;;9.73;2.70;;;11.70;99.90;;;;;;4941261;28;20213;-77
2020/12/17 11:49:43;;;;;;;6.07;3.10;;;11.70;99.90;;;;;;4933356;28;20188;-78
2020/12/17 11:52:09;;;;;;;7.67;3.13;;;11.80;99.90;;;;;;4924556;29;20188;-77
2020/12/17 11:54:34;;;;;;;8.37;2.60;;;11.80;99.90;;;;;;4917015;29;20210;-76
2020/12/17 11:57:00;;;;;;;12.20;2.73;;;11.90;99.90;;;;;;4905206;29;20170;-77
2020/12/17 11:59:42;;;;;;;8.53;2.80;;;12.10;99.90;;;;;;4901051;29;20205;-80
2020/12/17 12:02:10;;;;;;;7.43;2.60;;;12.00;99.90;;;;;;4916415;29;20177;-76
2020/12/17 12:04:39;;;;;;;8.40;2.77;;;12.00;99.90;;;;;;4920054;29;20194;-80
2020/12/17 12:07:04;;;;;;;7.80;2.97;;;12.10;99.90;;;;;;4903533;29;20174;-77
2020/12/17 12:09:31;;;;;;;9.53;2.60;;;12.30;99.90;;;;;;4914848;29;20181;-77
2020/12/17 12:11:57;;;;;;;7.47;2.37;;;12.20;99.90;;;;;;4919294;29;20236;-77
2020/12/17 12:14:23;;;;;;;6.80;2.47;;;12.10;99.90;;;;;;4919348;29;20244;-80
2020/12/17 12:16:50;;;;;;;8.30;2.57;;;12.00;99.90;;;;;;4918372;29;20185;-78
2020/12/17 12:19:16;;;;;;;7.73;3.23;;;11.90;99.90;;;;;;4921380;29;20280;-77
2020/12/17 12:21:46;;;;;;;10.47;2.97;;;12.00;99.90;;;;;;4918913;29;20185;-78
2020/12/17 12:24:11;;;;;;;6.90;2.97;;;11.90;99.90;;;;;;4938063;28;20186;-78
2020/12/17 12:26:37;;;;;;;6.63;2.60;;;11.80;99.90;;;;;;4941325;28;20213;-79
2020/12/17 12:29:03;;;;;;;7.03;2.70;;;11.60;99.90;;;;;;4934380;29;20190;-78
2020/12/17 12:31:29;;;;;;;8.13;2.20;;;11.50;99.90;;;;;;4913775;29;20241;-79
2020/12/17 12:33:55;;;;;;;7.97;2.73;;;11.60;99.90;;;;;;4918988;29;20204;-78
2020/12/17 12:36:21;;;;;;;6.47;2.70;;;11.50;99.90;;;;;;4940511;29;20178;-77
2020/12/17 12:38:47;;;;;;;7.00;2.40;;;11.50;99.90;;;;;;4910205;29;20704;-76
2020/12/17 12:41:20;;;;;;;8.40;2.90;;;11.50;99.90;;;;;;4918296;29;20205;-77
2020/12/17 12:43:48;;;;;;;9.23;2.67;;;11.60;99.90;;;;;;4916123;29;20201;-79
2020/12/17 12:46:18;;;;;;;10.03;2.93;;;11.60;99.90;;;;;;4900630;29;20218;-81
2020/12/17 12:48:44;;;;;;;7.70;2.50;;;11.60;99.90;;;;;;4899024;29;20670;-80
2020/12/17 12:51:10;;;;;;;8.50;2.33;;;11.70;99.90;;;;;;4896347;29;20201;-77
2020/12/17 12:53:35;;;;;;;10.70;2.90;;;11.60;99.90;;;;;;4897468;29;20189;-78
2020/12/17 12:56:01;;;;;;;9.17;2.80;;;11.50;99.90;;;;;;4897045;29;20175;-80
2020/12/17 12:58:27;;;;;;;7.00;2.90;;;11.60;99.90;;;;;;4900797;29;20662;-78